createdAt,value
2022-08-20T00:00:14.313Z,94332.34
2022-08-20T00:01:11.038Z,94304.13
2022-08-20T00:02:11.138Z,94321.72
2022-08-20T00:03:17.970Z,94334.94
2022-08-20T00:04:14.846Z,94325.03
2022-08-20T00:05:13.542Z,94196.34
2022-08-20T00:06:16.249Z,94329.44
2022-08-20T00:07:14.602Z,94325.34
2022-08-20T00:08:12.085Z,94292.25
2022-08-20T00:09:08.963Z,94306.81
2022-08-20T00:10:07.348Z,94288.13
2022-08-20T00:11:09.011Z,94332.63
2022-08-20T00:12:06.662Z,94329.22
2022-08-20T00:13:07.763Z,94327.31
2022-08-20T00:14:06.141Z,94323.19
2022-08-20T00:15:05.881Z,94313.22
2022-08-20T00:16:03.614Z,94329.38
2022-08-20T00:17:00.386Z,94317.88
2022-08-20T00:17:58.745Z,94301.53
2022-08-20T00:18:55.569Z,94337.44
2022-08-20T00:19:54.532Z,94338.75
2022-08-20T00:20:53.579Z,94343.47
2022-08-20T00:21:50.410Z,94332.81
2022-08-20T00:22:56.930Z,94333.28
2022-08-20T00:23:56.497Z,94327.09
2022-08-20T00:24:53.323Z,94331.19
2022-08-20T00:25:51.681Z,94325.34
2022-08-20T00:26:52.414Z,94314.59
2022-08-20T00:27:49.585Z,94339.44
2022-08-20T00:28:46.969Z,94341.97
2022-08-20T00:29:43.775Z,94325.19
2022-08-20T00:30:43.042Z,94312.84
2022-08-20T00:31:39.847Z,94312.50
2022-08-20T00:32:45.986Z,94254.56
2022-08-20T00:33:42.952Z,94265.81
2022-08-20T00:34:39.703Z,94313.47
2022-08-20T00:35:41.701Z,94322.63
2022-08-20T00:36:38.602Z,94323.31
2022-08-20T00:37:35.369Z,94244.56
2022-08-20T00:38:35.587Z,94336.91
2022-08-20T00:39:32.426Z,94298.28
2022-08-20T00:40:37.399Z,94329.63
2022-08-20T00:41:34.213Z,94302.72
2022-08-20T00:42:31.062Z,94272.16
2022-08-20T00:43:49.730Z,94341.22
2022-08-20T00:44:47.598Z,94304.78
2022-08-20T00:45:44.411Z,94328.84
2022-08-20T00:46:46.333Z,94279.09
2022-08-20T00:47:51.123Z,94328.16
2022-08-20T00:48:53.606Z,94321.09
2022-08-20T00:49:50.358Z,94331.69
2022-08-20T00:50:48.065Z,94317.66
2022-08-20T00:52:03.624Z,94198.13
2022-08-20T00:53:05.546Z,94299.84
2022-08-20T00:54:09.706Z,94295.97
2022-08-20T00:55:07.213Z,94285.28
2022-08-20T00:56:06.722Z,94305.22
2022-08-20T00:57:15.134Z,94241.06
2022-08-20T00:58:12.417Z,94315.09
2022-08-20T00:59:15.016Z,94305.06
2022-08-20T01:00:21.111Z,94276.91
2022-08-20T01:01:19.727Z,94264.00
2022-08-20T01:02:17.816Z,94311.31
2022-08-20T01:03:17.777Z,94145.47
2022-08-20T01:04:14.668Z,94307.47
2022-08-20T01:05:12.506Z,94286.38
2022-08-20T01:06:11.771Z,94305.38
2022-08-20T01:07:08.561Z,94302.38
2022-08-20T01:08:05.728Z,94285.78
2022-08-20T01:09:02.503Z,94315.06
2022-08-20T01:10:02.218Z,94290.34
2022-08-20T01:11:25.419Z,94287.50
2022-08-20T01:12:23.668Z,94190.78
2022-08-20T01:13:24.279Z,94294.50
2022-08-20T01:14:33.677Z,94300.53
2022-08-20T01:15:31.933Z,94294.38
2022-08-20T01:16:31.979Z,94206.31
2022-08-20T01:18:31.215Z,94294.25
2022-08-20T01:19:39.281Z,94292.78
2022-08-20T01:20:45.814Z,94301.03
2022-08-20T01:21:46.858Z,94296.63
2022-08-20T01:23:24.230Z,94237.19
2022-08-20T01:24:32.119Z,94273.69
2022-08-20T01:25:42.958Z,94170.00
2022-08-20T01:26:44.514Z,94293.38
2022-08-20T01:27:43.022Z,94273.56
2022-08-20T01:28:56.626Z,94154.56
2022-08-20T01:29:54.548Z,94172.91
2022-08-20T01:30:52.129Z,94259.97
2022-08-20T01:31:49.471Z,94274.81
2022-08-20T01:32:46.237Z,94231.22
2022-08-20T01:33:44.210Z,94296.38
2022-08-20T01:34:43.314Z,94299.00
2022-08-20T01:35:41.871Z,94281.19
2022-08-20T01:36:45.968Z,94265.53
2022-08-20T01:37:43.181Z,94259.56
2022-08-20T01:38:40.780Z,94229.38
2022-08-20T01:39:50.002Z,94271.00
2022-08-20T01:41:28.253Z,94269.75
2022-08-20T01:42:51.107Z,94278.81
2022-08-20T01:43:57.125Z,94280.16
2022-08-20T01:44:55.349Z,94267.03
2022-08-20T01:45:53.600Z,94251.66
2022-08-20T01:46:55.642Z,94268.19
2022-08-20T01:47:54.815Z,94283.25
2022-08-20T01:48:54.612Z,94281.63
2022-08-20T01:49:56.877Z,94286.97
2022-08-20T01:51:10.998Z,94178.28
2022-08-20T01:52:09.640Z,94269.75
2022-08-20T01:53:17.690Z,94273.53
2022-08-20T01:54:14.473Z,94281.34
2022-08-20T01:55:11.316Z,94279.41
2022-08-20T01:56:11.010Z,94258.94
2022-08-20T01:57:17.301Z,94273.72
2022-08-20T01:58:14.498Z,94273.88
2022-08-20T01:59:11.237Z,94255.22
2022-08-20T02:00:20.163Z,94271.81
2022-08-20T02:01:23.898Z,94278.50
2022-08-20T02:02:22.139Z,94295.22
2022-08-20T02:03:21.163Z,94249.50
2022-08-20T02:04:18.317Z,94264.63
2022-08-20T02:05:15.414Z,94277.25
2022-08-20T02:06:12.157Z,94274.94
2022-08-20T02:07:19.813Z,94279.81
2022-08-20T02:08:16.588Z,94278.63
2022-08-20T02:09:16.178Z,94289.72
2022-08-20T02:10:17.212Z,94268.03
2022-08-20T02:11:14.055Z,94261.25
2022-08-20T02:12:11.058Z,94269.84
2022-08-20T02:13:10.109Z,94238.75
2022-08-20T02:14:09.774Z,94228.50
2022-08-20T02:15:10.611Z,94269.59
2022-08-20T02:16:08.651Z,94264.56
2022-08-20T02:17:07.039Z,94275.16
2022-08-20T02:18:08.167Z,94213.88
2022-08-20T02:19:15.236Z,94273.66
2022-08-20T02:20:17.575Z,94263.63
2022-08-20T02:21:14.394Z,94271.81
2022-08-20T02:22:36.694Z,94262.84
2022-08-20T02:23:34.253Z,94275.78
2022-08-20T02:24:31.146Z,94262.19
2022-08-20T02:25:33.113Z,94258.00
2022-08-20T02:26:31.192Z,94254.13
2022-08-20T02:27:28.050Z,94264.22
2022-08-20T02:28:24.770Z,94257.34
2022-08-20T02:29:21.533Z,94261.06
2022-08-20T02:30:28.685Z,94275.03
2022-08-20T02:31:25.784Z,94266.50
2022-08-20T02:32:32.473Z,94262.66
2022-08-20T02:33:30.484Z,94188.91
2022-08-20T02:34:27.219Z,94226.00
2022-08-20T02:35:24.397Z,94268.03
2022-08-20T02:36:21.251Z,94251.09
2022-08-20T02:37:19.251Z,94268.59
2022-08-20T02:38:16.609Z,94270.53
2022-08-20T02:39:13.586Z,94252.75
2022-08-20T02:40:17.344Z,94264.78
2022-08-20T02:41:24.435Z,94243.38
2022-08-20T02:42:21.377Z,94271.19
2022-08-20T02:43:20.222Z,94243.03
2022-08-20T02:44:20.508Z,94303.91
2022-08-20T02:45:19.156Z,94254.00
2022-08-20T02:46:16.502Z,94270.84
2022-08-20T02:47:13.875Z,94211.09
2022-08-20T02:48:18.558Z,94285.50
2022-08-20T02:49:17.250Z,94270.19
2022-08-20T02:50:18.945Z,94271.44
2022-08-20T02:51:15.761Z,94293.91
2022-08-20T02:52:12.627Z,94297.97
2022-08-20T02:53:09.436Z,94169.13
2022-08-20T02:54:06.205Z,94287.81
2022-08-20T02:55:04.177Z,94261.81
2022-08-20T02:56:01.044Z,94294.72
2022-08-20T02:56:57.790Z,94274.88
2022-08-20T02:57:59.729Z,94278.75
2022-08-20T02:58:56.549Z,94257.19
2022-08-20T02:59:53.379Z,94296.53
2022-08-20T03:00:51.099Z,94287.91
2022-08-20T03:01:59.122Z,94245.34
2022-08-20T03:02:57.518Z,94082.78
2022-08-20T03:03:57.095Z,94257.63
2022-08-20T03:04:53.961Z,94253.19
2022-08-20T03:05:58.883Z,94257.06
2022-08-20T03:06:56.202Z,94174.59
2022-08-20T03:07:53.951Z,94293.59
2022-08-20T03:08:51.159Z,94278.69
2022-08-20T03:09:47.871Z,94265.13
2022-08-20T03:10:46.995Z,94285.56
2022-08-20T03:11:43.790Z,94276.53
2022-08-20T03:12:41.742Z,94276.44
2022-08-20T03:13:38.708Z,94292.31
2022-08-20T03:14:37.356Z,94207.69
2022-08-20T03:15:34.688Z,94264.84
2022-08-20T03:16:31.435Z,94250.41
2022-08-20T03:17:28.245Z,94192.50
2022-08-20T03:18:28.825Z,94281.56
2022-08-20T03:19:25.786Z,94269.53
2022-08-20T03:20:23.975Z,94284.13
2022-08-20T03:21:21.226Z,94245.97
2022-08-20T03:22:17.969Z,94169.50
2022-08-20T03:23:18.131Z,94294.19
2022-08-20T03:24:15.429Z,94165.59
2022-08-20T03:25:12.641Z,94284.13
2022-08-20T03:26:12.340Z,94182.09
2022-08-20T03:27:09.222Z,94283.47
2022-08-20T03:28:06.340Z,94291.81
2022-08-20T03:29:03.709Z,94284.72
2022-08-20T03:30:00.491Z,94282.81
2022-08-20T03:30:59.417Z,94257.69
2022-08-20T03:31:56.151Z,94296.94
2022-08-20T03:32:53.436Z,94300.59
2022-08-20T03:33:53.173Z,94309.03
2022-08-20T03:34:50.740Z,94194.38
2022-08-20T03:35:48.188Z,94250.88
2022-08-20T03:36:45.248Z,94276.31
2022-08-20T03:37:48.924Z,94293.66
2022-08-20T03:38:45.935Z,94290.69
2022-08-20T03:39:42.757Z,94288.00
2022-08-20T03:40:39.969Z,94287.78
2022-08-20T03:41:36.751Z,94296.28
2022-08-20T03:42:33.873Z,94270.75
2022-08-20T03:43:31.045Z,94266.63
2022-08-20T03:44:27.926Z,94287.25
2022-08-20T03:45:26.678Z,94305.47
2022-08-20T03:46:24.159Z,94301.63
2022-08-20T03:47:21.129Z,94299.16
2022-08-20T03:48:20.398Z,94304.31
2022-08-20T03:49:17.246Z,94304.00
2022-08-20T03:50:14.630Z,94309.88
2022-08-20T03:51:19.618Z,94283.69
2022-08-20T03:52:17.579Z,94303.88
2022-08-20T03:53:15.955Z,94310.28
2022-08-20T03:54:12.953Z,94276.66
2022-08-20T03:55:10.451Z,94301.81
2022-08-20T03:56:07.338Z,94303.41
2022-08-20T03:57:12.384Z,94277.50
2022-08-20T03:58:10.676Z,94319.28
2022-08-20T03:59:08.280Z,94317.13
2022-08-20T04:00:06.442Z,94308.53
2022-08-20T04:01:07.094Z,94309.25
2022-08-20T04:02:04.225Z,94178.41
2022-08-20T04:03:01.646Z,94316.88
2022-08-20T04:03:58.728Z,94297.53
2022-08-20T04:04:55.501Z,94304.13
2022-08-20T04:05:52.851Z,94246.34
2022-08-20T04:06:49.641Z,94263.69
2022-08-20T04:07:46.486Z,94262.28
2022-08-20T04:08:43.241Z,94307.44
2022-08-20T04:09:40.325Z,94303.16
2022-08-20T04:10:38.374Z,94308.41
2022-08-20T04:11:35.157Z,94290.97
2022-08-20T04:12:31.895Z,94263.38
2022-08-20T04:13:31.211Z,94314.72
2022-08-20T04:14:29.310Z,94313.28
2022-08-20T04:15:27.937Z,94220.44
2022-08-20T04:16:24.688Z,94315.97
2022-08-20T04:17:22.636Z,94323.84
2022-08-20T04:18:24.141Z,94279.22
2022-08-20T04:19:21.632Z,94319.75
2022-08-20T04:20:23.373Z,94281.38
2022-08-20T04:21:20.093Z,94317.19
2022-08-20T04:22:16.818Z,94323.44
2022-08-20T04:23:16.943Z,94284.91
2022-08-20T04:24:21.942Z,94320.13
2022-08-20T04:25:36.061Z,94289.63
2022-08-20T04:26:36.367Z,94308.44
2022-08-20T04:27:33.164Z,94316.97
2022-08-20T04:28:30.161Z,94312.88
2022-08-20T04:29:32.410Z,94302.22
2022-08-20T04:30:30.554Z,94315.94
2022-08-20T04:31:33.141Z,94185.34
2022-08-20T04:32:30.631Z,94286.06
2022-08-20T04:33:34.016Z,94305.78
2022-08-20T04:34:33.281Z,94312.19
2022-08-20T04:35:31.315Z,94304.63
2022-08-20T04:36:28.201Z,94292.44
2022-08-20T04:37:24.951Z,94310.34
2022-08-20T04:38:23.034Z,94194.56
2022-08-20T04:39:19.797Z,94291.97
2022-08-20T04:40:37.884Z,94317.91
2022-08-20T04:41:34.610Z,94313.00
2022-08-20T04:42:31.481Z,94317.44
2022-08-20T04:43:33.501Z,94313.34
2022-08-20T04:44:30.275Z,94325.03
2022-08-20T04:45:27.676Z,94239.34
2022-08-20T04:46:28.552Z,94323.03
2022-08-20T04:47:34.718Z,94325.66
2022-08-20T04:48:33.095Z,94216.06
2022-08-20T04:49:30.592Z,94340.19
2022-08-20T04:50:27.358Z,94233.28
2022-08-20T04:51:24.775Z,94322.16
2022-08-20T04:52:21.562Z,94318.38
2022-08-20T04:53:25.842Z,94242.53
2022-08-20T04:54:22.824Z,94328.81
2022-08-20T04:55:20.236Z,94290.66
2022-08-20T04:56:18.371Z,94323.28
2022-08-20T04:57:15.205Z,94267.66
2022-08-20T04:58:47.777Z,94316.16
2022-08-20T04:59:45.306Z,94319.34
2022-08-20T05:00:46.189Z,94327.50
2022-08-20T05:01:42.975Z,94205.44
2022-08-20T05:02:39.923Z,94307.00
2022-08-20T05:03:39.476Z,94322.69
2022-08-20T05:04:37.688Z,94256.22
2022-08-20T05:05:35.330Z,94279.44
2022-08-20T05:06:32.417Z,94342.09
2022-08-20T05:07:29.186Z,94317.81
2022-08-20T05:08:26.627Z,94209.09
2022-08-20T05:09:23.330Z,94319.16
2022-08-20T05:10:20.153Z,94328.16
2022-08-20T05:11:33.970Z,94329.91
2022-08-20T05:12:33.186Z,94295.47
2022-08-20T05:13:30.013Z,94303.59
2022-08-20T05:14:26.783Z,94323.75
2022-08-20T05:15:24.577Z,94329.63
2022-08-20T05:16:22.421Z,94309.84
2022-08-20T05:17:19.169Z,94293.06
2022-08-20T05:18:22.042Z,94332.34
2022-08-20T05:19:18.811Z,94331.84
2022-08-20T05:20:18.170Z,94325.97
2022-08-20T05:21:15.631Z,94330.09
2022-08-20T05:22:12.448Z,94215.88
2022-08-20T05:23:12.283Z,94338.94
2022-08-20T05:24:10.479Z,94321.72
2022-08-20T05:25:07.572Z,94229.53
2022-08-20T05:26:07.611Z,94321.72
2022-08-20T05:27:04.536Z,94338.31
2022-08-20T05:28:09.377Z,94267.09
2022-08-20T05:29:07.022Z,94198.31
2022-08-20T05:30:11.784Z,94320.81
2022-08-20T05:31:10.505Z,94322.66
2022-08-20T05:32:07.344Z,94290.19
2022-08-20T05:33:05.821Z,94328.28
2022-08-20T05:34:12.358Z,94225.78
2022-08-20T05:35:10.329Z,94326.06
2022-08-20T05:36:07.957Z,94258.50
2022-08-20T05:37:04.850Z,94311.44
2022-08-20T05:38:06.822Z,94315.13
2022-08-20T05:39:03.707Z,94303.34
2022-08-20T05:40:00.615Z,94307.97
2022-08-20T05:40:59.511Z,94308.28
2022-08-20T05:41:56.774Z,94187.00
2022-08-20T05:42:54.770Z,94284.50
2022-08-20T05:43:51.672Z,94316.97
2022-08-20T05:44:48.581Z,94187.22
2022-08-20T05:45:54.682Z,94191.66
2022-08-20T05:46:53.361Z,94317.44
2022-08-20T05:47:56.423Z,94313.13
2022-08-20T05:48:53.470Z,94231.28
2022-08-20T05:49:50.183Z,94341.47
2022-08-20T05:50:51.979Z,94322.56
2022-08-20T05:51:50.987Z,94322.78
2022-08-20T05:52:47.734Z,94311.09
2022-08-20T05:53:44.578Z,94309.19
2022-08-20T05:54:41.518Z,94318.50
2022-08-20T05:55:39.895Z,94312.47
2022-08-20T05:56:37.233Z,94306.47
2022-08-20T05:57:34.515Z,94302.97
2022-08-20T05:58:32.882Z,94308.75
2022-08-20T05:59:29.763Z,94294.19
2022-08-20T06:00:27.070Z,94318.16
2022-08-20T06:01:23.882Z,94186.88
2022-08-20T06:02:39.186Z,94278.91
2022-08-20T06:03:54.689Z,94124.97
2022-08-20T06:04:56.275Z,94169.63
2022-08-20T06:05:53.178Z,94298.66
2022-08-20T06:06:51.743Z,94281.28
2022-08-20T06:07:50.672Z,94289.00
2022-08-20T06:08:51.566Z,94190.91
2022-08-20T06:09:49.938Z,94295.25
2022-08-20T06:10:47.409Z,94300.81
2022-08-20T06:11:44.169Z,94321.69
2022-08-20T06:12:40.902Z,94303.16
2022-08-20T06:13:37.615Z,94319.34
2022-08-20T06:14:34.462Z,94314.56
2022-08-20T06:15:32.780Z,94186.19
2022-08-20T06:16:32.496Z,94257.44
2022-08-20T06:17:34.859Z,94201.88
2022-08-20T06:18:36.429Z,94220.38
2022-08-20T06:19:34.116Z,94277.69
2022-08-20T06:20:30.939Z,94283.06
2022-08-20T06:21:27.721Z,94200.44
2022-08-20T06:22:27.617Z,94279.75
2022-08-20T06:23:25.362Z,94293.19
2022-08-20T06:24:22.352Z,94298.75
2022-08-20T06:25:19.459Z,94313.81
2022-08-20T06:26:16.218Z,94312.84
2022-08-20T06:27:22.468Z,94180.19
2022-08-20T06:28:19.214Z,94308.38
2022-08-20T06:29:16.035Z,94294.09
2022-08-20T06:30:15.752Z,94293.94
2022-08-20T06:31:12.575Z,94305.78
2022-08-20T06:32:09.359Z,94149.84
2022-08-20T06:33:06.403Z,94311.47
2022-08-20T06:34:03.151Z,94255.38
2022-08-20T06:35:05.956Z,94310.50
2022-08-20T06:36:22.245Z,94307.72
2022-08-20T06:37:40.394Z,94257.38
2022-08-20T06:38:56.241Z,94217.44
2022-08-20T06:40:24.419Z,94274.31
2022-08-20T06:41:39.757Z,94278.34
2022-08-20T06:42:48.248Z,94250.53
2022-08-20T06:43:46.563Z,94265.16
2022-08-20T06:44:43.297Z,94301.41
2022-08-20T06:45:40.546Z,94195.97
2022-08-20T06:46:38.650Z,94264.31
2022-08-20T06:47:35.415Z,94297.28
2022-08-20T06:48:32.193Z,94298.19
2022-08-20T06:49:35.313Z,94296.69
2022-08-20T06:50:43.167Z,94295.00
2022-08-20T06:51:45.152Z,94195.59
2022-08-20T06:52:52.108Z,94299.03
2022-08-20T06:53:49.875Z,94308.09
2022-08-20T06:54:46.807Z,94236.03
2022-08-20T06:55:48.942Z,94309.50
2022-08-20T06:56:45.783Z,94259.59
2022-08-20T06:57:43.507Z,94288.25
2022-08-20T06:58:40.271Z,94296.69
2022-08-20T06:59:37.107Z,94204.00
2022-08-20T07:00:36.229Z,94289.44
2022-08-20T07:01:33.194Z,94287.38
2022-08-20T07:02:30.300Z,94266.72
2022-08-20T07:03:27.696Z,94206.47
2022-08-20T07:04:26.093Z,94290.38
2022-08-20T07:05:22.834Z,94297.25
2022-08-20T07:06:19.707Z,94256.41
2022-08-20T07:07:18.494Z,94185.84
2022-08-20T07:08:18.768Z,94280.22
2022-08-20T07:09:15.521Z,94287.13
2022-08-20T07:10:14.737Z,94291.47
2022-08-20T07:11:12.218Z,94286.75
2022-08-20T07:12:10.625Z,94266.47
2022-08-20T07:13:07.554Z,94256.34
2022-08-20T07:14:05.485Z,94263.34
2022-08-20T07:15:11.596Z,94200.31
2022-08-20T07:16:08.741Z,94294.13
2022-08-20T07:17:06.789Z,94273.28
2022-08-20T07:18:11.108Z,94245.53
2022-08-20T07:19:08.453Z,94241.63
2022-08-20T07:20:08.360Z,94277.91
2022-08-20T07:21:05.307Z,94262.28
2022-08-20T07:22:02.211Z,94278.19
2022-08-20T07:23:01.986Z,94288.22
2022-08-20T07:23:58.718Z,94268.66
2022-08-20T07:24:55.560Z,94284.72
2022-08-20T07:25:53.470Z,94260.25
2022-08-20T07:26:52.084Z,94285.41
2022-08-20T07:27:53.646Z,94200.53
2022-08-20T07:28:50.542Z,94274.94
2022-08-20T07:30:09.020Z,94285.28
2022-08-20T07:31:28.279Z,94265.00
2022-08-20T07:32:39.425Z,94279.13
2022-08-20T07:33:38.441Z,94239.53
2022-08-20T07:34:36.406Z,94288.91
2022-08-20T07:35:33.832Z,94275.84
2022-08-20T07:36:32.034Z,94286.78
2022-08-20T07:37:28.812Z,94279.31
2022-08-20T07:38:28.134Z,94284.06
2022-08-20T07:39:24.858Z,94275.94
2022-08-20T07:40:30.354Z,94255.97
2022-08-20T07:41:27.658Z,94247.06
2022-08-20T07:42:24.522Z,94269.91
2022-08-20T07:43:24.950Z,94258.19
2022-08-20T07:44:22.759Z,94250.19
2022-08-20T07:45:32.116Z,94028.97
2022-08-20T07:46:31.258Z,94270.81
2022-08-20T07:47:28.338Z,94218.19
2022-08-20T07:48:31.177Z,94271.69
2022-08-20T07:49:28.552Z,94264.75
2022-08-20T07:50:27.683Z,94271.75
2022-08-20T07:51:24.410Z,94272.06
2022-08-20T07:52:21.750Z,94225.41
2022-08-20T07:53:18.814Z,94210.63
2022-08-20T07:54:15.653Z,94268.97
2022-08-20T07:55:16.452Z,94271.28
2022-08-20T07:56:24.257Z,94227.81
2022-08-20T07:57:21.246Z,94177.72
2022-08-20T07:58:20.686Z,94240.56
2022-08-20T07:59:23.930Z,94285.59
2022-08-20T08:00:23.032Z,94284.84
2022-08-20T08:01:25.944Z,94249.13
2022-08-20T08:02:22.858Z,94232.78
2022-08-20T08:03:19.765Z,94276.97
2022-08-20T08:04:37.187Z,94281.06
2022-08-20T08:05:38.361Z,94255.47
2022-08-20T08:06:35.307Z,94284.78
2022-08-20T08:07:33.978Z,94244.25
2022-08-20T08:08:33.829Z,94282.59
2022-08-20T08:09:34.352Z,94250.09
2022-08-20T08:10:31.140Z,94224.28
2022-08-20T08:11:27.945Z,94274.81
2022-08-20T08:12:36.350Z,94290.50
2022-08-20T08:13:40.178Z,94275.44
2022-08-20T08:14:37.168Z,94282.19
2022-08-20T08:15:40.809Z,94238.75
2022-08-20T08:16:39.243Z,94283.75
2022-08-20T08:17:37.629Z,94280.31
2022-08-20T08:18:41.992Z,94279.69
2022-08-20T08:19:49.939Z,94265.59
2022-08-20T08:20:47.152Z,94268.31
2022-08-20T08:21:44.788Z,94236.53
2022-08-20T08:22:43.023Z,94267.00
2022-08-20T08:23:45.769Z,94233.06
2022-08-20T08:24:56.712Z,94253.78
2022-08-20T08:25:54.387Z,94264.94
2022-08-20T08:26:51.998Z,94218.34
2022-08-20T08:27:48.844Z,94249.03
2022-08-20T08:28:45.827Z,94250.09
2022-08-20T08:29:43.393Z,94246.47
2022-08-20T08:30:42.358Z,94255.06
2022-08-20T08:31:40.984Z,94262.94
2022-08-20T08:32:37.939Z,94244.38
2022-08-20T08:33:40.389Z,94174.66
2022-08-20T08:35:02.990Z,94183.09
2022-08-20T08:36:03.615Z,94257.28
2022-08-20T08:37:02.329Z,94257.94
2022-08-20T08:38:00.860Z,94258.63
2022-08-20T08:38:57.615Z,94254.50
2022-08-20T08:39:54.625Z,94252.31
2022-08-20T08:40:59.145Z,94233.81
2022-08-20T08:42:00.680Z,94259.38
2022-08-20T08:43:03.069Z,94237.44
2022-08-20T08:44:23.707Z,94251.28
2022-08-20T08:45:20.596Z,94249.06
2022-08-20T08:46:22.627Z,94198.06
2022-08-20T08:47:30.440Z,94214.59
2022-08-20T08:48:48.662Z,94242.66
2022-08-20T08:49:47.727Z,94238.94
2022-08-20T08:50:53.650Z,94162.63
2022-08-20T08:52:07.089Z,94239.53
2022-08-20T08:53:05.988Z,94245.84
2022-08-20T08:54:12.873Z,94236.91
2022-08-20T08:55:20.428Z,94190.63
2022-08-20T08:56:18.420Z,94238.03
2022-08-20T08:57:16.712Z,94231.69
2022-08-20T08:58:17.195Z,94228.84
2022-08-20T08:59:14.201Z,94161.19
2022-08-20T09:00:21.596Z,94194.44
2022-08-20T09:01:55.097Z,94241.28
2022-08-20T09:02:39.619Z,94242.88
2022-08-20T09:03:40.058Z,94224.47
2022-08-20T09:04:41.059Z,94223.41
2022-08-20T09:05:59.823Z,94211.78
2022-08-20T09:06:56.717Z,94225.78
2022-08-20T09:07:54.334Z,94229.88
2022-08-20T09:08:56.982Z,94194.81
2022-08-20T09:09:53.965Z,94217.81
2022-08-20T09:10:51.899Z,94220.63
2022-08-20T09:11:53.245Z,94225.59
2022-08-20T09:12:50.187Z,94241.41
2022-08-20T09:13:49.485Z,94217.53
2022-08-20T09:14:48.627Z,94200.13
2022-08-20T09:15:46.014Z,94139.81
2022-08-20T09:16:51.995Z,94225.03
2022-08-20T09:17:49.655Z,94203.97
2022-08-20T09:18:46.463Z,94231.41
2022-08-20T09:19:43.310Z,94210.97
2022-08-20T09:20:40.101Z,94234.28
2022-08-20T09:21:36.997Z,94240.78
2022-08-20T09:22:33.892Z,94217.41
2022-08-20T09:23:30.769Z,94222.34
2022-08-20T09:24:27.538Z,94231.78
2022-08-20T09:25:24.840Z,94170.00
2022-08-20T09:26:21.788Z,94119.34
2022-08-20T09:27:22.522Z,94225.22
2022-08-20T09:28:19.294Z,94217.47
2022-08-20T09:29:16.140Z,94230.88
2022-08-20T09:30:15.321Z,94221.81
2022-08-20T09:31:12.145Z,94232.59
2022-08-20T09:32:21.013Z,94191.03
2022-08-20T09:33:18.099Z,94187.94
2022-08-20T09:34:14.984Z,94211.22
2022-08-20T09:35:13.326Z,94187.66
2022-08-20T09:36:29.139Z,94194.47
2022-08-20T09:37:36.769Z,94176.84
2022-08-20T09:38:34.581Z,94181.31
2022-08-20T09:39:31.609Z,94192.03
2022-08-20T09:40:28.391Z,94195.63
2022-08-20T09:41:25.726Z,94205.41
2022-08-20T09:42:31.728Z,94173.13
2022-08-20T09:43:28.790Z,94119.63
2022-08-20T09:44:25.519Z,94100.09
2022-08-20T09:45:22.547Z,94212.59
2022-08-20T09:46:19.346Z,94214.91
2022-08-20T09:47:23.963Z,94170.22
2022-08-20T09:48:20.667Z,94208.81
2022-08-20T09:49:26.426Z,94184.53
2022-08-20T09:50:24.149Z,94205.97
2022-08-20T09:51:21.903Z,94179.25
2022-08-20T09:52:26.258Z,94198.47
2022-08-20T09:53:23.422Z,94207.47
2022-08-20T09:54:22.359Z,94197.75
2022-08-20T09:55:26.440Z,94218.78
2022-08-20T09:56:23.331Z,94106.50
2022-08-20T09:57:20.444Z,94085.78
2022-08-20T09:58:17.099Z,94202.97
2022-08-20T09:59:16.146Z,94139.28
2022-08-20T10:00:13.371Z,94204.25
2022-08-20T10:01:17.051Z,94129.41
2022-08-20T10:02:13.876Z,94176.00
2022-08-20T10:03:10.605Z,94205.91
2022-08-20T10:04:08.070Z,94202.63
2022-08-20T10:05:05.210Z,94206.97
2022-08-20T10:06:02.785Z,94133.69
2022-08-20T10:06:59.728Z,94212.50
2022-08-20T10:07:56.680Z,94200.25
2022-08-20T10:08:53.502Z,94190.50
2022-08-20T10:09:50.298Z,94216.56
2022-08-20T10:10:47.050Z,94216.66
2022-08-20T10:11:43.798Z,94212.47
2022-08-20T10:12:43.859Z,94223.66
2022-08-20T10:13:40.735Z,94200.53
2022-08-20T10:14:37.521Z,94195.19
2022-08-20T10:15:34.272Z,94187.44
2022-08-20T10:16:32.049Z,94164.88
2022-08-20T10:17:28.867Z,94207.47
2022-08-20T10:18:25.648Z,94134.31
2022-08-20T10:19:22.442Z,94204.66
2022-08-20T10:20:21.205Z,94209.63
2022-08-20T10:21:17.947Z,94209.34
2022-08-20T10:22:14.852Z,94187.38
2022-08-20T10:23:12.004Z,94183.84
2022-08-20T10:24:08.853Z,94187.59
2022-08-20T10:25:06.989Z,94198.75
2022-08-20T10:26:04.399Z,94192.31
2022-08-20T10:27:02.062Z,94072.28
2022-08-20T10:27:59.424Z,94175.41
2022-08-20T10:28:56.139Z,94192.69
2022-08-20T10:29:52.897Z,94108.97
2022-08-20T10:30:49.601Z,94195.53
2022-08-20T10:31:46.391Z,94185.06
2022-08-20T10:32:43.134Z,94188.38
2022-08-20T10:33:41.316Z,94155.16
2022-08-20T10:34:40.210Z,94175.97
2022-08-20T10:35:37.116Z,94187.56
2022-08-20T10:36:33.898Z,94139.13
2022-08-20T10:37:30.882Z,94201.13
2022-08-20T10:38:27.646Z,94165.31
2022-08-20T10:39:24.469Z,94172.31
2022-08-20T10:40:21.606Z,94070.56
2022-08-20T10:41:19.853Z,94156.25
2022-08-20T10:42:16.638Z,94192.06
2022-08-20T10:43:13.476Z,94173.09
2022-08-20T10:44:13.230Z,94188.03
2022-08-20T10:45:15.940Z,94133.09
2022-08-20T10:46:12.973Z,94090.50
2022-08-20T10:47:28.835Z,94183.03
2022-08-20T10:48:26.413Z,94164.34
2022-08-20T10:49:23.383Z,94145.19
2022-08-20T10:50:20.617Z,94137.22
2022-08-20T10:51:17.758Z,94097.97
2022-08-20T10:52:14.526Z,94171.81
2022-08-20T10:53:11.410Z,94183.56
2022-08-20T10:54:12.652Z,94130.63
2022-08-20T10:55:11.009Z,94174.25
2022-08-20T10:56:07.806Z,94159.50
2022-08-20T10:57:04.747Z,94176.31
2022-08-20T10:58:01.494Z,94181.19
2022-08-20T10:58:58.185Z,94174.59
2022-08-20T10:59:57.055Z,94158.53
2022-08-20T11:00:56.067Z,94096.88
2022-08-20T11:02:01.650Z,94174.69
2022-08-20T11:02:58.507Z,94174.25
2022-08-20T11:03:55.370Z,94182.91
2022-08-20T11:04:53.333Z,94161.63
2022-08-20T11:05:50.094Z,94161.50
2022-08-20T11:06:46.899Z,94164.03
2022-08-20T11:07:50.548Z,94146.28
2022-08-20T11:08:53.275Z,94173.25
2022-08-20T11:09:54.317Z,94159.22
2022-08-20T11:10:52.202Z,94133.47
2022-08-20T11:11:48.962Z,94169.09
2022-08-20T11:12:46.421Z,94168.00
2022-08-20T11:13:43.385Z,94165.22
2022-08-20T11:14:40.760Z,94166.38
2022-08-20T11:15:42.101Z,94144.41
2022-08-20T11:16:38.881Z,94155.56
2022-08-20T11:17:39.718Z,94155.88
2022-08-20T11:18:36.444Z,94098.38
2022-08-20T11:19:38.137Z,94141.16
2022-08-20T11:20:36.757Z,94160.28
2022-08-20T11:21:33.475Z,94163.50
2022-08-20T11:22:30.215Z,94129.28
2022-08-20T11:23:28.000Z,94154.44
2022-08-20T11:24:27.297Z,94139.69
2022-08-20T11:25:25.925Z,94108.56
2022-08-20T11:26:25.507Z,94133.00
2022-08-20T11:27:26.411Z,94120.50
2022-08-20T11:28:31.962Z,94111.09
2022-08-20T11:29:33.395Z,94130.78
2022-08-20T11:30:34.180Z,94127.47
2022-08-20T11:31:31.014Z,94124.25
2022-08-20T11:32:27.948Z,94074.03
2022-08-20T11:33:24.761Z,94088.69
2022-08-20T11:34:21.493Z,94126.88
2022-08-20T11:35:41.542Z,94128.41
2022-08-20T11:36:37.887Z,94081.41
2022-08-20T11:37:34.839Z,94117.91
2022-08-20T11:38:31.882Z,94114.78
2022-08-20T11:39:28.662Z,94119.84
2022-08-20T11:40:26.768Z,94116.78
2022-08-20T11:41:23.749Z,94118.81
2022-08-20T11:42:20.963Z,94115.75
2022-08-20T11:43:18.283Z,94071.94
2022-08-20T11:44:20.682Z,94092.88